createdAt,value
2022-08-22T00:01:27.814Z,19.52
2022-08-22T00:04:04.990Z,13.88
2022-08-22T00:06:40.000Z,18.48
2022-08-22T00:09:32.290Z,16.67
2022-08-22T00:12:15.403Z,16.52
2022-08-22T00:14:51.002Z,23.88
2022-08-22T00:17:35.569Z,17.67
2022-08-22T00:20:13.151Z,22.48
2022-08-22T00:22:48.897Z,20.67
2022-08-22T00:25:48.968Z,18.02
2022-08-22T00:28:22.303Z,20.50
2022-08-22T00:30:57.361Z,13.90
2022-08-22T00:33:36.300Z,16.42
2022-08-22T00:36:14.067Z,21.92
2022-08-22T00:38:47.811Z,15.85
2022-08-22T00:41:32.587Z,16.40
2022-08-22T00:44:30.852Z,17.40
2022-08-22T00:47:37.287Z,16.90
2022-08-22T00:50:23.293Z,16.33
2022-08-22T00:53:16.439Z,22.67
2022-08-22T00:55:55.111Z,19.15
2022-08-22T00:59:22.906Z,19.65
2022-08-22T01:02:05.082Z,17.95
2022-08-22T01:04:50.925Z,16.88
2022-08-22T01:07:50.941Z,19.10
2022-08-22T01:10:36.535Z,17.48
2022-08-22T01:13:23.880Z,18.50
2022-08-22T01:16:02.028Z,18.42
2022-08-22T01:18:53.285Z,21.65
2022-08-22T01:21:58.395Z,16.88
2022-08-22T01:25:22.493Z,13.25
2022-08-22T01:28:39.009Z,21.20
2022-08-22T01:31:58.998Z,20.77
2022-08-22T01:34:57.985Z,17.52
2022-08-22T01:37:54.539Z,17.38
2022-08-22T01:41:17.206Z,21.33
2022-08-22T01:44:09.239Z,20.38
2022-08-22T01:46:46.616Z,22.85
2022-08-22T01:49:22.036Z,20.17
2022-08-22T01:51:58.499Z,21.45
2022-08-22T01:54:39.912Z,17.02
2022-08-22T01:57:10.232Z,21.52
2022-08-22T01:59:42.401Z,27.40
2022-08-22T02:02:46.954Z,19.42
2022-08-22T02:05:27.609Z,17.65
2022-08-22T02:08:02.388Z,18.83
2022-08-22T02:10:48.166Z,21.55
2022-08-22T02:13:44.425Z,20.85
2022-08-22T02:16:19.069Z,22.58
2022-08-22T02:19:06.687Z,16.63
2022-08-22T02:21:45.421Z,21.25
2022-08-22T02:24:26.420Z,21.42
2022-08-22T02:27:06.161Z,25.45
2022-08-22T02:29:51.382Z,25.88
2022-08-22T02:32:26.227Z,20.67
2022-08-22T02:35:03.660Z,18.52
2022-08-22T02:37:36.784Z,19.90
2022-08-22T02:40:13.450Z,19.50
2022-08-22T02:42:47.071Z,20.33
2022-08-22T02:45:28.233Z,20.67
2022-08-22T02:48:04.481Z,27.80
2022-08-22T02:50:41.795Z,20.08
2022-08-22T02:53:24.305Z,25.35
2022-08-22T02:56:01.430Z,18.48
2022-08-22T02:58:37.711Z,24.15
2022-08-22T03:01:37.721Z,22.85
2022-08-22T03:04:44.871Z,28.00
2022-08-22T03:07:24.177Z,30.83
2022-08-22T03:10:02.123Z,28.17
2022-08-22T03:12:40.107Z,30.92
2022-08-22T03:15:14.174Z,29.50
2022-08-22T03:17:50.802Z,23.85
2022-08-22T03:20:36.421Z,31.92
2022-08-22T03:23:11.016Z,37.58
2022-08-22T03:25:44.874Z,33.65
2022-08-22T03:28:19.850Z,41.45
2022-08-22T03:31:00.666Z,31.65
2022-08-22T03:33:30.799Z,29.15
2022-08-22T03:36:07.537Z,36.00
2022-08-22T03:39:08.831Z,34.92
2022-08-22T03:42:09.771Z,37.13
2022-08-22T03:45:04.211Z,38.55
2022-08-22T03:48:13.085Z,39.85
2022-08-22T03:51:14.585Z,46.58
2022-08-22T03:54:11.333Z,57.10
2022-08-22T03:57:12.828Z,30.83
2022-08-22T04:00:25.698Z,31.95
2022-08-22T04:03:25.523Z,33.20
2022-08-22T04:06:35.351Z,28.75
2022-08-22T04:09:26.821Z,34.55
2022-08-22T04:12:24.120Z,25.60
2022-08-22T04:15:20.652Z,28.90
2022-08-22T04:18:01.999Z,23.38
2022-08-22T04:21:23.849Z,25.80
2022-08-22T04:24:14.683Z,28.48
2022-08-22T04:26:49.164Z,24.05
2022-08-22T04:29:22.352Z,28.98
2022-08-22T04:31:57.177Z,22.35
2022-08-22T04:34:33.414Z,26.38
2022-08-22T04:37:09.999Z,24.35
2022-08-22T04:39:46.347Z,24.83
2022-08-22T04:42:36.909Z,23.83
2022-08-22T04:45:11.379Z,25.80
2022-08-22T04:47:47.222Z,25.02
2022-08-22T04:50:28.911Z,27.88
2022-08-22T04:53:23.384Z,26.45
2022-08-22T04:56:07.140Z,28.77
2022-08-22T04:58:47.066Z,26.95
2022-08-22T05:01:19.128Z,29.05
2022-08-22T05:03:54.402Z,23.63
2022-08-22T05:06:26.487Z,25.95
2022-08-22T05:08:56.887Z,26.42
2022-08-22T05:11:28.836Z,25.98
2022-08-22T05:14:02.245Z,29.58
2022-08-22T05:16:35.370Z,29.88
2022-08-22T05:19:06.778Z,28.23
2022-08-22T05:21:41.203Z,25.23
2022-08-22T05:24:13.035Z,28.67
2022-08-22T05:26:48.310Z,25.70
2022-08-22T05:29:21.068Z,21.25
2022-08-22T05:31:52.665Z,22.13
2022-08-22T05:34:23.823Z,23.45
2022-08-22T05:36:57.119Z,23.98
2022-08-22T05:39:27.861Z,20.98
2022-08-22T05:41:59.761Z,22.15
2022-08-22T05:44:32.306Z,23.13
2022-08-22T05:47:03.551Z,18.45
2022-08-22T05:49:38.997Z,24.83
2022-08-22T05:52:13.584Z,34.22
2022-08-22T05:54:51.479Z,19.13
2022-08-22T05:57:26.519Z,20.45
2022-08-22T06:00:03.291Z,20.58
2022-08-22T06:02:49.586Z,21.70
2022-08-22T06:05:25.792Z,27.35
2022-08-22T06:08:01.027Z,21.25
2022-08-22T06:10:36.839Z,19.45
2022-08-22T06:13:11.880Z,17.10
2022-08-22T06:15:47.779Z,20.95
2022-08-22T06:18:20.841Z,23.67
2022-08-22T06:20:53.726Z,15.95
2022-08-22T06:23:27.533Z,25.33
2022-08-22T06:25:59.175Z,17.65
2022-08-22T06:28:38.201Z,19.55
2022-08-22T06:31:26.924Z,19.45
2022-08-22T06:33:59.941Z,24.63
2022-08-22T06:36:31.990Z,27.92
2022-08-22T06:39:13.289Z,30.27
2022-08-22T06:41:45.938Z,26.58
2022-08-22T06:44:19.970Z,15.48
2022-08-22T06:46:51.511Z,21.30
2022-08-22T06:49:23.224Z,14.88
2022-08-22T06:51:52.947Z,18.25
2022-08-22T06:54:24.053Z,20.98
2022-08-22T06:56:54.412Z,26.33
2022-08-22T06:59:27.264Z,22.35
2022-08-22T07:02:02.845Z,18.90
2022-08-22T07:04:32.369Z,14.80
2022-08-22T07:07:02.547Z,20.00
2022-08-22T07:09:33.328Z,22.70
2022-08-22T07:12:03.977Z,11.05
2022-08-22T07:14:42.862Z,16.95
2022-08-22T07:17:18.583Z,16.10
2022-08-22T07:19:54.950Z,20.67
2022-08-22T07:22:25.600Z,17.15
2022-08-22T07:24:56.815Z,15.80
2022-08-22T07:27:37.502Z,17.80
2022-08-22T07:30:11.249Z,15.88
2022-08-22T07:32:48.487Z,14.27
2022-08-22T07:35:19.805Z,11.32
2022-08-22T07:37:56.358Z,12.45
2022-08-22T07:40:31.902Z,12.00
2022-08-22T07:43:06.429Z,12.57
2022-08-22T07:45:39.831Z,10.73
2022-08-22T07:48:25.978Z,14.77
2022-08-22T07:51:04.628Z,13.52
2022-08-22T07:53:40.575Z,12.80
2022-08-22T07:56:13.576Z,14.45
2022-08-22T07:58:43.915Z,16.15
2022-08-22T08:01:18.903Z,12.82
2022-08-22T08:03:53.822Z,19.23
2022-08-22T08:06:23.344Z,13.90
2022-08-22T08:08:53.113Z,14.25
2022-08-22T08:11:24.546Z,14.65
2022-08-22T08:13:56.100Z,12.35
2022-08-22T08:16:29.581Z,16.15
2022-08-22T08:19:01.003Z,16.58
2022-08-22T08:21:31.888Z,11.93
2022-08-22T08:24:01.741Z,17.55
2022-08-22T08:26:34.110Z,15.52
2022-08-22T08:29:03.610Z,20.88
2022-08-22T08:31:38.060Z,12.90
2022-08-22T08:34:16.761Z,16.52
2022-08-22T08:36:54.364Z,14.27
2022-08-22T08:39:31.075Z,13.68
2022-08-22T08:42:18.705Z,12.52
2022-08-22T08:45:08.709Z,14.32
2022-08-22T08:48:05.206Z,16.15
2022-08-22T08:50:50.327Z,12.80
2022-08-22T08:53:52.929Z,12.45
2022-08-22T08:56:30.593Z,12.65
2022-08-22T08:59:10.364Z,16.75
2022-08-22T09:02:04.616Z,14.52
2022-08-22T09:05:09.077Z,9.93
2022-08-22T09:08:19.154Z,12.88
2022-08-22T09:14:11.875Z,14.18
2022-08-22T09:16:58.399Z,14.52
2022-08-22T09:20:17.593Z,16.00
2022-08-22T09:23:11.034Z,13.27
2022-08-22T09:25:46.168Z,14.05
2022-08-22T09:28:20.792Z,12.80
2022-08-22T09:31:16.903Z,10.18
2022-08-22T09:34:01.463Z,10.70
2022-08-22T09:36:48.070Z,14.95
2022-08-22T09:39:19.208Z,11.80
2022-08-22T09:40:15.394Z,13.80
2022-08-22T09:41:59.720Z,10.98
2022-08-22T09:44:40.014Z,13.48
2022-08-22T09:47:24.613Z,13.80
2022-08-22T09:50:04.953Z,9.38
2022-08-22T09:52:57.870Z,8.45
2022-08-22T09:55:45.498Z,9.55
2022-08-22T09:58:23.713Z,9.77
2022-08-22T10:00:56.981Z,8.50
2022-08-22T10:03:53.710Z,5.47
2022-08-22T10:06:26.044Z,8.90
2022-08-22T10:09:02.899Z,10.23
2022-08-22T10:11:38.824Z,10.15
2022-08-22T10:14:22.308Z,10.75
2022-08-22T10:17:03.720Z,5.22
2022-08-22T10:19:38.238Z,6.20
2022-08-22T10:22:37.805Z,12.55
2022-08-22T10:25:25.814Z,10.15
2022-08-22T10:28:17.857Z,8.43
2022-08-22T10:31:02.620Z,14.40
2022-08-22T10:33:34.909Z,11.23
2022-08-22T10:36:07.850Z,10.35
2022-08-22T10:38:46.788Z,9.63
2022-08-22T10:41:31.525Z,11.10
2022-08-22T10:44:06.584Z,7.18
2022-08-22T10:46:42.189Z,10.38
2022-08-22T10:49:19.601Z,5.13
2022-08-22T10:51:54.503Z,15.48
2022-08-22T10:54:38.152Z,13.90
2022-08-22T10:57:25.979Z,10.57
2022-08-22T11:00:02.757Z,12.27
2022-08-22T11:02:53.180Z,7.53
2022-08-22T11:05:33.743Z,5.50
2022-08-22T11:08:19.285Z,10.02
2022-08-22T11:11:09.474Z,8.48
2022-08-22T11:13:49.731Z,6.28
2022-08-22T11:16:30.402Z,4.43
2022-08-22T11:19:15.874Z,5.07
2022-08-22T11:22:01.635Z,5.40
2022-08-22T11:25:04.830Z,7.45
2022-08-22T11:27:41.032Z,6.85
2022-08-22T11:30:18.505Z,6.43
2022-08-22T11:33:17.706Z,6.75
2022-08-22T11:35:53.971Z,7.32
2022-08-22T11:38:39.666Z,7.78
2022-08-22T11:41:16.567Z,7.15
2022-08-22T11:43:56.695Z,6.47
2022-08-22T11:46:31.201Z,17.77
2022-08-22T11:49:18.859Z,5.03
2022-08-22T11:52:11.632Z,9.25
2022-08-22T11:54:55.918Z,9.82
2022-08-22T11:57:32.480Z,6.32
2022-08-22T12:00:17.106Z,5.93
2022-08-22T12:03:16.456Z,9.93
2022-08-22T12:05:48.467Z,9.93
2022-08-22T12:08:46.398Z,7.50
2022-08-22T12:11:22.548Z,10.38
2022-08-22T12:14:06.201Z,11.18
2022-08-22T12:16:44.943Z,7.97
2022-08-22T12:19:22.943Z,7.32
2022-08-22T12:22:22.279Z,8.00
2022-08-22T12:25:10.267Z,8.65
2022-08-22T12:28:08.737Z,7.03
2022-08-22T12:30:43.625Z,8.60
2022-08-22T12:33:40.967Z,10.13
2022-08-22T12:36:23.048Z,13.73
2022-08-22T12:39:19.531Z,5.97
2022-08-22T12:42:13.775Z,6.22
2022-08-22T12:44:56.682Z,5.97
2022-08-22T12:47:45.045Z,7.65
2022-08-22T12:50:36.609Z,9.30
2022-08-22T12:53:35.156Z,7.43
2022-08-22T12:56:10.285Z,5.65
2022-08-22T12:59:09.176Z,5.40
2022-08-22T13:01:43.336Z,11.32
2022-08-22T13:04:32.789Z,8.02
2022-08-22T13:07:19.023Z,10.07
2022-08-22T13:09:57.717Z,9.18
2022-08-22T13:12:31.868Z,9.73
2022-08-22T13:15:06.336Z,7.97
2022-08-22T13:17:39.568Z,7.82
2022-08-22T13:20:19.633Z,6.53
2022-08-22T13:22:48.451Z,5.65
2022-08-22T13:25:26.650Z,6.00
2022-08-22T13:27:59.134Z,6.10
2022-08-22T13:30:31.667Z,3.95
2022-08-22T13:33:08.571Z,8.52
2022-08-22T13:35:44.777Z,6.50
2022-08-22T13:38:26.043Z,4.63
2022-08-22T13:40:57.750Z,8.07
2022-08-22T13:43:29.855Z,7.85
2022-08-22T13:46:02.083Z,9.52
2022-08-22T13:48:47.804Z,6.93
2022-08-22T13:51:24.697Z,9.93
2022-08-22T13:54:00.747Z,7.63
2022-08-22T13:56:36.388Z,7.90
2022-08-22T13:59:08.310Z,6.15
2022-08-22T14:01:45.071Z,6.30
2022-08-22T14:04:31.950Z,6.18
2022-08-22T14:07:25.415Z,5.95
2022-08-22T14:09:57.589Z,4.90
2022-08-22T14:12:33.640Z,6.97
2022-08-22T14:15:24.418Z,5.38
2022-08-22T14:18:03.287Z,8.70
2022-08-22T14:20:33.760Z,7.57
2022-08-22T14:23:07.687Z,4.28
2022-08-22T14:25:39.952Z,7.18
2022-08-22T14:28:21.772Z,4.40
2022-08-22T14:31:00.778Z,6.13
2022-08-22T14:33:35.061Z,7.65
2022-08-22T14:36:11.420Z,4.45
2022-08-22T14:38:46.573Z,9.38
2022-08-22T14:41:28.464Z,17.38
2022-08-22T14:44:24.104Z,20.60
2022-08-22T14:46:57.565Z,16.75
2022-08-22T14:49:30.485Z,19.60
2022-08-22T14:52:08.864Z,21.25
2022-08-22T14:54:38.809Z,18.08
2022-08-22T14:57:10.554Z,19.50
2022-08-22T14:59:50.061Z,19.55
2022-08-22T15:02:27.836Z,23.73
2022-08-22T15:04:57.309Z,21.42
2022-08-22T15:07:29.528Z,26.00
2022-08-22T15:10:03.567Z,26.60
2022-08-22T15:12:36.986Z,24.50
2022-08-22T15:15:15.399Z,27.40
2022-08-22T15:17:46.068Z,28.75
2022-08-22T15:20:28.537Z,28.42
2022-08-22T15:23:02.165Z,25.48
2022-08-22T15:25:34.379Z,27.98
2022-08-22T15:28:14.164Z,30.17
2022-08-22T15:30:46.639Z,26.77
2022-08-22T15:33:23.739Z,28.27
2022-08-22T15:35:53.705Z,30.00
2022-08-22T15:38:29.778Z,37.22
2022-08-22T15:41:31.390Z,24.80
2022-08-22T15:44:30.741Z,25.55
2022-08-22T15:47:05.374Z,26.27
2022-08-22T15:49:50.450Z,31.75
2022-08-22T15:52:25.830Z,35.08
2022-08-22T15:55:23.857Z,22.58
2022-08-22T15:58:02.531Z,31.95
2022-08-22T16:00:35.055Z,30.38
2022-08-22T16:03:08.978Z,21.27
2022-08-22T16:05:55.215Z,25.85
2022-08-22T16:08:33.051Z,17.58
2022-08-22T16:11:22.537Z,21.88
2022-08-22T16:14:23.773Z,14.68
2022-08-22T16:17:01.783Z,14.10
2022-08-22T16:19:32.283Z,18.75
2022-08-22T16:22:14.966Z,18.30
2022-08-22T16:25:10.295Z,19.05
2022-08-22T16:27:56.660Z,16.65
2022-08-22T16:30:35.139Z,17.13
2022-08-22T16:33:04.695Z,15.57
2022-08-22T16:36:25.120Z,15.75
2022-08-22T16:38:57.937Z,11.23
2022-08-22T16:41:30.690Z,10.43
2022-08-22T16:44:41.719Z,10.32
2022-08-22T16:47:13.822Z,11.02
2022-08-22T16:49:56.971Z,14.25
2022-08-22T16:52:53.149Z,9.13
2022-08-22T16:56:05.276Z,12.15
2022-08-22T16:59:09.897Z,10.02
2022-08-22T17:02:14.170Z,14.80
2022-08-22T17:04:53.869Z,11.23
2022-08-22T17:07:36.822Z,10.35
2022-08-22T17:10:29.740Z,8.20
2022-08-22T17:13:15.706Z,8.77
2022-08-22T17:16:00.866Z,10.80
2022-08-22T17:18:54.513Z,8.23
2022-08-22T17:21:28.460Z,7.85
2022-08-22T17:24:07.638Z,6.00
2022-08-22T17:26:55.156Z,9.75
2022-08-22T17:29:42.467Z,8.55
2022-08-22T17:32:18.500Z,5.88
2022-08-22T17:34:57.133Z,5.60
2022-08-22T17:37:38.693Z,5.50
2022-08-22T17:40:26.234Z,5.82
2022-08-22T17:43:18.032Z,6.07
2022-08-22T17:46:01.675Z,6.57
2022-08-22T17:48:34.877Z,2.45
2022-08-22T17:51:13.991Z,1.58
2022-08-22T17:53:49.216Z,3.38
2022-08-22T17:56:23.518Z,2.53
2022-08-22T17:59:00.690Z,3.33
2022-08-22T18:01:46.637Z,1.30
2022-08-22T18:04:22.740Z,3.08
2022-08-22T18:06:56.456Z,3.38
2022-08-22T18:09:34.167Z,1.48
2022-08-22T18:12:07.726Z,1.70
2022-08-22T18:14:45.841Z,3.13
2022-08-22T18:17:20.276Z,2.33
2022-08-22T18:19:56.056Z,2.22
2022-08-22T18:22:29.668Z,1.55
2022-08-22T18:25:05.102Z,2.75
2022-08-22T18:27:39.200Z,6.68
2022-08-22T18:30:18.287Z,3.28
2022-08-22T18:32:55.496Z,3.20
2022-08-22T18:35:29.023Z,1.40
2022-08-22T18:38:03.697Z,4.45
2022-08-22T18:40:50.942Z,1.88
2022-08-22T18:43:24.046Z,1.02
2022-08-22T18:46:04.161Z,1.35
2022-08-22T18:48:54.261Z,2.05
2022-08-22T18:51:31.075Z,1.45
2022-08-22T18:54:26.892Z,2.78
2022-08-22T18:57:04.048Z,2.85
2022-08-22T18:59:50.314Z,2.08
2022-08-22T19:02:40.647Z,1.40
2022-08-22T19:05:33.844Z,2.22
2022-08-22T19:08:29.497Z,2.40
2022-08-22T19:11:12.832Z,2.22
2022-08-22T19:13:54.560Z,3.22
2022-08-22T19:16:51.729Z,2.78
2022-08-22T19:19:24.235Z,3.28
2022-08-22T19:22:25.153Z,4.03
2022-08-22T19:25:18.235Z,3.05
2022-08-22T19:28:08.900Z,2.80
2022-08-22T19:30:42.367Z,2.72
2022-08-22T19:33:12.788Z,4.45
2022-08-22T19:36:04.199Z,2.85
2022-08-22T19:39:03.541Z,3.80
2022-08-22T19:41:52.531Z,4.25
2022-08-22T19:44:49.385Z,2.47
2022-08-22T19:47:27.981Z,4.30
2022-08-22T19:50:06.601Z,2.63
2022-08-22T19:52:47.964Z,3.13
2022-08-22T19:55:23.961Z,4.90
2022-08-22T19:58:04.519Z,3.72
2022-08-22T20:00:52.854Z,4.15
2022-08-22T20:03:32.743Z,3.65
2022-08-22T20:06:22.142Z,4.60
2022-08-22T20:09:09.723Z,1.85
2022-08-22T20:11:48.375Z,4.47
2022-08-22T20:14:30.104Z,3.63
2022-08-22T20:17:07.583Z,2.75
2022-08-22T20:22:45.487Z,3.78
2022-08-22T20:25:42.454Z,7.88
2022-08-22T20:28:11.286Z,5.90
2022-08-22T20:30:43.067Z,2.78
2022-08-22T20:33:14.849Z,6.07
2022-08-22T20:35:45.213Z,7.35
2022-08-22T20:38:17.658Z,4.63
2022-08-22T20:40:57.289Z,3.40
2022-08-22T20:43:33.257Z,2.90
2022-08-22T20:46:13.139Z,4.72
2022-08-22T20:48:45.310Z,7.60
2022-08-22T20:51:17.330Z,3.70
2022-08-22T20:53:52.551Z,5.05
2022-08-22T20:56:36.694Z,2.58
2022-08-22T20:59:24.206Z,3.85
2022-08-22T21:01:57.868Z,4.13
2022-08-22T21:04:28.693Z,4.05
2022-08-22T21:07:01.685Z,6.18
2022-08-22T21:09:48.286Z,4.25
2022-08-22T21:12:16.802Z,9.38
2022-08-22T21:14:47.022Z,3.72
2022-08-22T21:17:29.097Z,4.13
2022-08-22T21:20:19.285Z,3.50
2022-08-22T21:22:48.151Z,7.18
2022-08-22T21:25:16.501Z,3.33
2022-08-22T21:27:49.381Z,4.15
2022-08-22T21:30:26.609Z,6.78
2022-08-22T21:32:56.396Z,6.03
2022-08-22T21:35:30.747Z,2.38
2022-08-22T21:38:00.531Z,4.30
2022-08-22T21:40:33.763Z,2.95
2022-08-22T21:43:06.398Z,4.53
2022-08-22T21:45:42.643Z,5.35
2022-08-22T21:48:33.250Z,6.45
2022-08-22T21:51:23.147Z,5.53
2022-08-22T21:54:03.714Z,5.38
2022-08-22T21:56:39.904Z,2.83
2022-08-22T21:59:50.798Z,3.40
2022-08-22T22:02:37.124Z,3.03
2022-08-22T22:05:09.585Z,3.03
2022-08-22T22:07:41.253Z,4.05
2022-08-22T22:10:11.769Z,3.45
2022-08-22T22:12:41.106Z,2.55
2022-08-22T22:15:11.153Z,3.17
2022-08-22T22:17:40.862Z,5.30
2022-08-22T22:20:10.145Z,4.85
2022-08-22T22:22:45.796Z,6.13
2022-08-22T22:25:40.346Z,3.90
2022-08-22T22:28:05.395Z,3.20
2022-08-22T22:30:33.680Z,5.00
2022-08-22T22:33:03.170Z,6.85
2022-08-22T22:35:32.253Z,5.05
2022-08-22T22:38:00.902Z,5.30
2022-08-22T22:40:29.628Z,3.83
2022-08-22T22:42:58.371Z,7.75
2022-08-22T22:45:26.669Z,5.13
2022-08-22T22:47:55.197Z,6.97
2022-08-22T22:50:25.329Z,4.50
2022-08-22T22:52:54.177Z,5.07
2022-08-22T22:55:24.136Z,6.70
2022-08-22T22:57:58.610Z,6.97
2022-08-22T23:00:30.982Z,4.85
2022-08-22T23:03:00.457Z,6.43
2022-08-22T23:05:30.905Z,6.15
2022-08-22T23:07:59.663Z,6.65
2022-08-22T23:10:29.421Z,5.20
2022-08-22T23:12:58.983Z,6.18
2022-08-22T23:15:27.720Z,5.20
2022-08-22T23:17:57.526Z,5.90
2022-08-22T23:20:26.058Z,7.75
2022-08-22T23:22:56.019Z,6.13
2022-08-22T23:25:24.293Z,5.88
2022-08-22T23:27:52.783Z,8.35
2022-08-22T23:30:21.551Z,5.97
2022-08-22T23:32:49.878Z,5.85
2022-08-22T23:35:18.111Z,7.05
2022-08-22T23:37:46.411Z,7.25
2022-08-22T23:40:16.147Z,5.97
2022-08-22T23:42:44.886Z,6.53
2022-08-22T23:45:13.274Z,6.63
2022-08-22T23:47:41.612Z,8.10
2022-08-22T23:50:10.334Z,6.57
2022-08-22T23:52:38.573Z,5.30
2022-08-22T23:55:08.039Z,6.35
2022-08-22T23:57:37.822Z,6.05
